Impacts METAR Board
IDs:

KDCA - Washington/National, VA, US

Updated at: 2300 UTC 01 Mar 2021
Potential Impact None Slight Moderate High
Time 01/11Z 01/12Z 01/13Z 01/14Z 01/15Z 01/16Z 01/17Z 01/18Z 01/19Z 01/20Z 01/21Z 01/22Z 01/23Z
Temp45 45 46 46 47 51 51 51 50 50 50 51 50
Dewpt44 44 45 45 46 49 46 41 35 35 29 28 24
Altim29.77 29.76 29.76 29.69 29.74 29.75 29.78 29.79 29.78 29.83 29.85 29.85 29.92
VIS5 4 2.5 2.5 6 4 8 10 10 10 10 10 10
CIG48 70 90 4 5 5 30 60 100 220 200 240 --
CoverOVCOVCOVCOVCOVCOVCOVCOVCOVCOVCOVCBKNSCT
FltCatMVFRMVFRIFRLIFRIFRIFRMVFRVFRVFRVFRVFRVFRVFR
WX-RA BR-RA BR-RA BR-RA BRBRRA BR-DZ------------
WDir00200170160320320310310300300300300
WSpd0 0 4 10 4 8 14 10 18 12 14 9 11
WGst-- -- -- -- -- 19 27 19 25 22 23 18 22
Raw hourly METARs
KDCA 011052Z 00000KT 5SM -RA BR BKN048 OVC080 07/07 A2977 RMK AO2 SLP079 P0005 T00720067 $
KDCA 011152Z 00000KT 4SM -RA BR BKN070 OVC090 07/07 A2976 RMK AO2 SLP076 P0005 60015 70095 T00720067 10078 20067 58005 $
KDCA 011252Z COR 20004KT 2 1/2SM -RA BR OVC090 08/07 A2976 RMK AO2 SLP076 P0005 T00780072
KDCA 011352Z 17010KT 2 1/2SM -RA BR BKN004 OVC090 08/07 A2969 RMK AO2 PRESFR SLP054 P0004 T00780072
KDCA 011452Z 16004KT 6SM BR BKN005 OVC080 08/08 A2974 RMK AO2 RAE37 SLP070 P0001 60010 T00830078 55006
KDCA 011605Z 32008G19KT 300V360 4SM R01/5000VP6000FT RA BR BKN005 BKN009 OVC034 11/09 A2975 RMK AO2 RAB03 VIS S 2 1/2 P0001 T01060094
KDCA 011652Z 32014G27KT 8SM -DZ FEW015 BKN030 OVC042 11/08 A2978 RMK AO2 PK WND 31028/1636 RAB03E33DZB50 SLP085 P0003 T01060078
KDCA 011752Z 31010G19KT 10SM FEW035 BKN060 BKN110 OVC200 11/05 A2979 RMK AO2 PK WND 33030/1701 DZE28RAB41E51 SLP087 P0000 60013 T01060050 10111 20072 53018
KDCA 011852Z 31018G25KT 10SM FEW070 BKN100 OVC230 10/02 A2978 RMK AO2 PK WND 32030/1816 SLP086 BINOVC NW T01000017
KDCA 011952Z 30012G22KT 10SM FEW060 SCT160 OVC220 10/02 A2983 RMK AO2 PK WND 31029/1909 SLP102 T01000017
KDCA 012052Z 30014G23KT 10SM FEW065 BKN200 OVC250 10/M02 A2985 RMK AO2 PK WND 29032/2004 SLP108 T01001017 53021
KDCA 012152Z 30009G18KT 10SM FEW070 SCT200 BKN240 11/M02 A2985 RMK AO2 SLP109 T01061022
KDCA 012252Z 30011G22KT 10SM SCT070 SCT210 SCT240 10/M04 A2992 RMK AO2 PK WND 29031/2237 SLP131 T01001044



Page loaded:  23:17 UTC  |   03:17 PM Pacific  |   04:17 PM Mountain  |   05:17 PM Central  |   06:17 PM Eastern

 

ADVISORIES

FORECASTS

FORECASTS

OBSERVATIONS

USER TOOLS

ABOUT US